地図

経路データ

SID SEASON NUMBER BASIN SUBBASIN NAME ISO_TIME NATURE LAT LON WMO_WIND WMO_PRES WMO_AGENCY TRACK_TYPE DIST2LAND LANDFALL IFLAG USA_AGENCY USA_ATCF_ID USA_LAT USA_LON USA_RECORD USA_STATUS USA_WIND USA_PRES USA_SSHS USA_R34_NE USA_R34_SE USA_R34_SW USA_R34_NW USA_R50_NE USA_R50_SE USA_R50_SW USA_R50_NW USA_R64_NE USA_R64_SE USA_R64_SW USA_R64_NW USA_POCI USA_ROCI USA_RMW USA_EYE TOKYO_LAT TOKYO_LON TOKYO_GRADE TOKYO_WIND TOKYO_PRES TOKYO_R50_DIR TOKYO_R50_LONG TOKYO_R50_SHORT TOKYO_R30_DIR TOKYO_R30_LONG TOKYO_R30_SHORT TOKYO_LAND CMA_LAT CMA_LON CMA_CAT CMA_WIND CMA_PRES HKO_LAT HKO_LON HKO_CAT HKO_WIND HKO_PRES NEWDELHI_LAT NEWDELHI_LON NEWDELHI_GRADE NEWDELHI_WIND NEWDELHI_PRES NEWDELHI_CI NEWDELHI_DP NEWDELHI_POCI REUNION_LAT REUNION_LON REUNION_TYPE REUNION_WIND REUNION_PRES REUNION_TNUM REUNION_CI REUNION_RMW REUNION_R34_NE REUNION_R34_SE REUNION_R34_SW REUNION_R34_NW REUNION_R50_NE REUNION_R50_SE REUNION_R50_SW REUNION_R50_NW REUNION_R64_NE REUNION_R64_SE REUNION_R64_SW REUNION_R64_NW BOM_LAT BOM_LON BOM_TYPE BOM_WIND BOM_PRES BOM_TNUM BOM_CI BOM_RMW BOM_R34_NE BOM_R34_SE BOM_R34_SW BOM_R34_NW BOM_R50_NE BOM_R50_SE BOM_R50_SW BOM_R50_NW BOM_R64_NE BOM_R64_SE BOM_R64_SW BOM_R64_NW BOM_ROCI BOM_POCI BOM_EYE BOM_POS_METHOD BOM_PRES_METHOD NADI_LAT NADI_LON NADI_CAT NADI_WIND NADI_PRES WELLINGTON_LAT WELLINGTON_LON WELLINGTON_WIND WELLINGTON_PRES DS824_LAT DS824_LON DS824_STAGE DS824_WIND DS824_PRES TD9636_LAT TD9636_LON TD9636_STAGE TD9636_WIND TD9636_PRES TD9635_LAT TD9635_LON TD9635_WIND TD9635_PRES TD9635_ROCI NEUMANN_LAT NEUMANN_LON NEUMANN_CLASS NEUMANN_WIND NEUMANN_PRES MLC_LAT MLC_LON MLC_CLASS MLC_WIND MLC_PRES USA_GUST BOM_GUST BOM_GUST_PER REUNION_GUST REUNION_GUST_PER USA_SEAHGT USA_SEARAD_NE USA_SEARAD_SE USA_SEARAD_SW USA_SEARAD_NW STORM_SPEED STORM_DIR
1859249N11324 1859 19 NA NA NOT_NAMED 1859-09-05 12:00:00 TS 11.4000 -36.0000 main 1656 1653 _____________O -1 11.4000 -36.0000 TS 35 22 304
1859249N11324 1859 19 NA NA NOT_NAMED 1859-09-05 15:00:00 TS 12.0007 -36.9117 main 1699 1697 _____________P -1 12.0007 -36.9117 TS 35 21 304
1859249N11324 1859 19 NA NA NOT_NAMED 1859-09-05 18:00:00 TS 12.6000 -37.8000 main 1750 1708 _____________O -1 12.6000 -37.8000 TS 35 21 305
1859249N11324 1859 19 NA NA NOT_NAMED 1859-09-05 21:00:00 TS 13.1996 -38.6505 main 1706 1676 _____________P -1 13.1996 -38.6505 TS 37 21 306
1859249N11324 1859 19 NA NA NOT_NAMED 1859-09-06 00:00:00 TS 13.8000 -39.5000 main 1676 1646 _____________O -1 13.8000 -39.5000 TS 40 21 305
1859249N11324 1859 19 NA NA NOT_NAMED 1859-09-06 03:00:00 TS 14.3998 -40.4004 main 1645 1622 _____________P -1 14.3998 -40.4004 TS 40 21 305
1859249N11324 1859 19 NA NA NOT_NAMED 1859-09-06 06:00:00 TS 15.0000 -41.3000 main 1623 1608 _____________O -1 15.0000 -41.3000 TS 40 21 305
1859249N11324 1859 19 NA NA NOT_NAMED 1859-09-06 09:00:00 TS 15.5995 -42.1506 main 1610 1606 _____________P -1 15.5995 -42.1506 TS 42 20 306
1859249N11324 1859 19 NA NA NOT_NAMED 1859-09-06 12:00:00 TS 16.2000 -43.0000 main 1612 1606 _____________O -1 16.2000 -43.0000 TS 45 21 306
1859249N11324 1859 19 NA NA NOT_NAMED 1859-09-06 15:00:00 TS 16.7998 -43.9004 main 1608 1601 _____________P -1 16.7998 -43.9004 TS 45 21 305
1859249N11324 1859 19 NA NA NOT_NAMED 1859-09-06 18:00:00 TS 17.4000 -44.8000 main 1608 1606 _____________O -1 17.4000 -44.8000 TS 45 21 306
1859249N11324 1859 19 NA NA NOT_NAMED 1859-09-06 21:00:00 TS 17.9994 -45.6507 main 1617 1617 _____________P -1 17.9994 -45.6507 TS 47 20 307
1859249N11324 1859 19 NA NA NOT_NAMED 1859-09-07 00:00:00 TS 18.6000 -46.5000 main 1638 1638 _____________O -1 18.6000 -46.5000 TS 50 21 306
1859249N11324 1859 19 NA NA NOT_NAMED 1859-09-07 03:00:00 TS 19.1998 -47.4005 main 1661 1656 _____________P -1 19.1998 -47.4005 TS 52 21 305
1859249N11324 1859 19 NA NA NOT_NAMED 1859-09-07 06:00:00 TS 19.8000 -48.3000 main 1682 1673 _____________O -1 19.8000 -48.3000 TS 55 21 307
1859249N11324 1859 19 NA NA NOT_NAMED 1859-09-07 09:00:00 TS 20.4368 -49.1501 main 1665 1646 _____________P -1 20.4368 -49.1501 TS 57 20 307
1859249N11324 1859 19 NA NA NOT_NAMED 1859-09-07 12:00:00 TS 21.0000 -50.0000 main 1646 1570 _____________O -1 21.0000 -50.0000 TS 60 19 298
1859249N11324 1859 19 NA NA NOT_NAMED 1859-09-07 15:00:00 TS 21.3198 -50.9022 main 1570 1487 _____________P -1 21.3198 -50.9022 TS 60 18 293
1859249N11324 1859 19 NA NA NOT_NAMED 1859-09-07 18:00:00 TS 21.7000 -51.8000 main 1487 1425 _____________O -1 21.7000 -51.8000 TS 60 20 305
1859249N11324 1859 19 NA NA NOT_NAMED 1859-09-07 21:00:00 TS 22.4693 -52.6493 main 1429 1370 _____________P -1 22.4693 -52.6493 TS 65 22 316
1859249N11324 1859 19 NA NA NOT_NAMED 1859-09-08 00:00:00 TS 23.3000 -53.5000 main 1370 1313 _____________O -1 23.3000 -53.5000 HU 70 22 311
1859249N11324 1859 19 NA NA NOT_NAMED 1859-09-08 03:00:00 TS 23.8872 -54.4013 main 1313 1262 _____________P -1 23.8872 -54.4013 HU 72 20 304
1859249N11324 1859 19 NA NA NOT_NAMED 1859-09-08 06:00:00 TS 24.4000 -55.3000 main 1258 1212 _____________O -1 24.4000 -55.3000 HU 75 20 302
1859249N11324 1859 19 NA NA NOT_NAMED 1859-09-08 09:00:00 TS 24.9657 -56.2691 main 1210 1189 _____________P -1 24.9657 -56.2691 HU 77 19 306
1859249N11324 1859 19 NA NA NOT_NAMED 1859-09-08 12:00:00 TS 25.5000 -57.0000 main 1189 1188 _____________O -1 25.5000 -57.0000 HU 80 13 319
1859249N11324 1859 19 NA NA NOT_NAMED 1859-09-08 15:00:00 TS 25.9566 -57.2140 main 1211 1211 _____________P -1 25.9566 -57.2140 HU 82 9 349
1859249N11324 1859 19 NA NA NOT_NAMED 1859-09-08 18:00:00 TS 26.4000 -57.2000 main 1242 1242 _____________O -1 26.4000 -57.2000 HU 85 10 355
1859249N11324 1859 19 NA NA NOT_NAMED 1859-09-08 21:00:00 TS 26.9000 -57.3000 main 1274 1274 _____________P -1 26.9000 -57.3000 HU 87 10 350
1859249N11324 1859 19 NA NA NOT_NAMED 1859-09-09 00:00:00 TS 27.4000 -57.4000 main 1309 1309 _____________O -1 27.4000 -57.4000 HU 90 10 349
1859249N11324 1859 19 NA NA NOT_NAMED 1859-09-09 03:00:00 TS 27.8575 -57.5001 main 1345 1345 _____________P -1 27.8575 -57.5001 HU 90 9 349
1859249N11324 1859 19 NA NA NOT_NAMED 1859-09-09 06:00:00 TS 28.3000 -57.6000 main 1374 1374 _____________O -1 28.3000 -57.6000 HU 90 9 348
1859249N11324 1859 19 NA NA NOT_NAMED 1859-09-09 09:00:00 TS 28.7425 -57.7149 main 1403 1403 _____________P -1 28.7425 -57.7149 HU 90 9 349
1859249N11324 1859 19 NA NA NOT_NAMED 1859-09-09 12:00:00 TS 29.2000 -57.8000 main 1443 1443 _____________O -1 29.2000 -57.8000 HU 90 10 355
1859249N11324 1859 19 NA NA NOT_NAMED 1859-09-09 15:00:00 TS 29.7000 -57.8152 main 1489 1489 _____________P -1 29.7000 -57.8152 HU 90 10 1
1859249N11324 1859 19 NA NA NOT_NAMED 1859-09-09 18:00:00 TS 30.2000 -57.8000 main 1535 1535 _____________O -1 30.2000 -57.8000 HU 90 10 2
1859249N11324 1859 19 NA NA NOT_NAMED 1859-09-09 21:00:00 TS 30.6500 -57.8000 main 1570 1529 _____________P -1 30.6500 -57.8000 HU 90 9 0
1859249N11324 1859 19 NA NA NOT_NAMED 1859-09-10 00:00:00 TS 31.1000 -57.8000 main 1529 1478 _____________O -1 31.1000 -57.8000 HU 90 10 2
1859249N11324 1859 19 NA NA NOT_NAMED 1859-09-10 03:00:00 TS 31.6000 -57.8000 main 1478 1428 _____________P -1 31.6000 -57.8000 HU 90 10 1
1859249N11324 1859 19 NA NA NOT_NAMED 1859-09-10 06:00:00 TS 32.1000 -57.8000 main 1428 1377 _____________O -1 32.1000 -57.8000 HU 90 10 359
1859249N11324 1859 19 NA NA NOT_NAMED 1859-09-10 09:00:00 TS 32.5875 -57.8000 main 1377 1337 _____________P -1 32.5875 -57.8000 HU 90 9 0
1859249N11324 1859 19 NA NA NOT_NAMED 1859-09-10 12:00:00 TS 33.0000 -57.8000 main 1337 1308 _____________O -1 33.0000 -57.8000 HU 90 7 0
1859249N11324 1859 19 NA NA NOT_NAMED 1859-09-10 15:00:00 TS 33.2800 -57.8000 main 1308 1288 _____________P -1 33.2800 -57.8000 HU 90 5 2
1859249N11324 1859 19 NA NA NOT_NAMED 1859-09-10 18:00:00 TS 33.5000 -57.8000 main 1288 1268 _____________O -1 33.5000 -57.8000 HU 90 5 0
1859249N11324 1859 19 NA NA NOT_NAMED 1859-09-10 21:00:00 TS 33.7500 -57.8074 main 1258 1239 _____________P -1 33.7500 -57.8074 HU 87 5 2
1859249N11324 1859 19 NA NA NOT_NAMED 1859-09-11 00:00:00 TS 34.0000 -57.8000 main 1239 1219 _____________O -1 34.0000 -57.8000 HU 85 5 5
1859249N11324 1859 19 NA NA NOT_NAMED 1859-09-11 03:00:00 TS 34.2500 -57.7575 main 1210 1195 _____________P -1 34.2500 -57.7575 HU 85 5 9
1859249N11324 1859 19 NA NA NOT_NAMED 1859-09-11 06:00:00 TS 34.5000 -57.7000 main 1195 1176 _____________O -1 34.5000 -57.7000 HU 85 5 9
1859249N11324 1859 19 NA NA NOT_NAMED 1859-09-11 09:00:00 TS 34.7425 -57.6574 main 1176 1153 _____________P -1 34.7425 -57.6574 HU 85 5 9
1859249N11324 1859 19 NA NA NOT_NAMED 1859-09-11 12:00:00 TS 35.0000 -57.6000 main 1153 1130 _____________O -1 35.0000 -57.6000 HU 85 6 13
1859249N11324 1859 19 NA NA NOT_NAMED 1859-09-11 15:00:00 TS 35.3075 -57.5076 main 1130 1107 _____________P -1 35.3075 -57.5076 HU 85 6 15
1859249N11324 1859 19 NA NA NOT_NAMED 1859-09-11 18:00:00 TS 35.6000 -57.4000 main 1107 1089 _____________O -1 35.6000 -57.4000 HU 85 5 13
1859249N11324 1859 19 NA NA NOT_NAMED 1859-09-11 21:00:00 TS 35.8071 -57.3593 main 1089 1072 _____________P -1 35.8071 -57.3593 HU 85 4 22
1859249N11324 1859 19 NA NA NOT_NAMED 1859-09-12 00:00:00 TS 36.0000 -57.2000 main 1074 1058 _____________O -1 36.0000 -57.2000 HU 85 7 48
1859249N11324 1859 19 NA NA NOT_NAMED 1859-09-12 03:00:00 TS 36.2428 -56.7603 main 1064 1064 _____________P -1 36.2428 -56.7603 HU 85 5 70
1859249N11324 1859 19 NA NA NOT_NAMED 1859-09-12 06:00:00 TS 36.1667 -56.6333 90 hurdat_atl main 1069 1067 O____________O hurdat_atl AL041859 35.5000 -57.5000 HU 90 2 36.5000 -56.2000 HU 85 7 75
1859249N11324 1859 19 NA NA NOT_NAMED 1859-09-12 09:00:00 TS 36.4300 -55.8761 main 1071 1052 P____________P AL041859 36.2168 -55.9675 HU 90 2 36.6433 -55.7848 HU 85 17 61
1859249N11324 1859 19 NA NA NOT_NAMED 1859-09-12 12:00:00 TS 37.0000 -54.7800 90 hurdat_atl main 1052 978 O____________O hurdat_atl AL041859 37.0000 -54.5000 HU 90 2 37.0000 -55.2000 HU 85 24 52
1859249N11324 1859 19 NA NA NOT_NAMED 1859-09-12 15:00:00 TS 37.8978 -53.5125 main 967 858 P____________P AL041859 37.9236 -53.1722 HU 90 2 37.8462 -54.1932 HU 85 28 44
1859249N11324 1859 19 NA NA NOT_NAMED 1859-09-12 18:00:00 TS 38.9667 -52.3333 90 hurdat_atl main 848 738 O____________O hurdat_atl AL041859 39.0000 -52.0000 HU 90 2 38.9000 -53.0000 HU 85 972 28 38
1859249N11324 1859 19 NA NA NOT_NAMED 1859-09-12 21:00:00 TS 40.1397 -51.2761 main 738 640 P____________P AL041859 40.2863 -50.9263 HU 85 2 39.8463 -51.9758 HU 82 28 34
1859249N11324 1859 19 NA NA NOT_NAMED 1859-09-13 00:00:00 TS 41.2667 -50.2667 80 hurdat_atl main 632 593 O____________O hurdat_atl AL041859 41.5000 -50.0000 HU 80 1 40.8000 -50.8000 HU 80 25 38
1859249N11324 1859 19 NA NA NOT_NAMED 1859-09-13 03:00:00 TS 42.0822 -49.2364 main 591 568 P____________P AL041859 42.2478 -49.2391 HU 80 1 41.7509 -49.2310 HU 77 23 44
1859249N11324 1859 19 NA NA NOT_NAMED 1859-09-13 06:00:00 TS 42.9000 -48.1667 80 hurdat_atl main 568 561 O____________O hurdat_atl AL041859 43.0000 -48.5000 HU 80 1 42.7000 -47.5000 HU 75 24 42
1859249N11324 1859 19 NA NA NOT_NAMED 1859-09-13 09:00:00 TS 43.8881 -47.0183 main 567 567 P____________P AL041859 44.0984 -47.6027 HU 75 1 43.4675 -45.8494 HU 72 29 40
1859249N11324 1859 19 NA NA NOT_NAMED 1859-09-13 12:00:00 TS 45.1400 -45.5800 70 hurdat_atl main 597 597 O____________O hurdat_atl AL041859 45.5000 -46.5000 HU 70 1 44.6000 -44.2000 HU 70 38 37
1859249N11324 1859 19 NA NA NOT_NAMED 1859-09-13 15:00:00 TS 46.8824 -43.7716 main 664 664 P____________P AL041859 47.1803 -45.1152 HU 70 1 46.5845 -42.4279 HU 67 46 34
1859249N11324 1859 19 NA NA NOT_NAMED 1859-09-13 18:00:00 TS 48.9400 -41.7600 70 hurdat_atl main 810 810 O____________O hurdat_atl AL041859 49.0000 -43.5000 HU 70 1 48.9000 -40.6000 HU 65 53 38
1859249N11324 1859 19 NA NA NOT_NAMED 1859-09-13 21:00:00 TS 51.0330 -38.8124 main 1042 876 _____________P AL041859 HU -1 51.0330 -38.8124 HU 62 50 36
1859249N11324 1859 19 NA NA NOT_NAMED 1859-09-14 00:00:00 ET 53.0000 -37.0000 main 868 _____________O -1 53.0000 -37.0000 EX 60 45 29

IBTrACS Databaseについて

本データベースは、米国NOAAが公開する1842年以降の世界の熱帯低気圧のベストトラックデータアーカイブInternational Best Track Archive for Climate Stewardship (IBTrACS)を、ウェブで閲覧しやすい形式に変換したものです。

最終更新日:2021-12-03